createdAt,value
2023-01-19T00:00:10.876Z,99169.94
2023-01-19T00:04:13.408Z,99171.16
2023-01-19T00:14:08.928Z,99177.88
2023-01-19T00:18:11.393Z,99182.44
2023-01-19T00:22:13.140Z,99174.09
2023-01-19T00:26:17.122Z,99183.06
2023-01-19T00:30:52.718Z,99188.47
2023-01-19T00:35:44.803Z,99196.69
2023-01-19T00:39:46.533Z,99206.41
2023-01-19T00:43:48.038Z,99208.53
2023-01-19T00:47:56.879Z,99214.81
2023-01-19T00:51:58.510Z,99221.78
2023-01-19T00:56:00.332Z,99230.56
2023-01-19T01:00:05.822Z,99224.72
2023-01-19T01:04:07.519Z,99237.72
2023-01-19T01:08:09.141Z,99226.38
2023-01-19T01:12:10.719Z,99230.81
2023-01-19T01:16:15.175Z,99233.50
2023-01-19T01:20:20.019Z,99238.94
2023-01-19T01:24:21.974Z,99246.03
2023-01-19T01:28:23.767Z,99247.66
2023-01-19T01:32:25.310Z,99249.53
2023-01-19T01:36:29.087Z,99241.28
2023-01-19T01:40:30.601Z,99246.63
2023-01-19T01:44:50.988Z,99250.94
2023-01-19T01:49:04.498Z,99248.13
2023-01-19T01:53:11.327Z,99264.38
2023-01-19T01:57:13.100Z,99261.38
2023-01-19T02:01:33.580Z,99263.09
2023-01-19T02:05:36.458Z,99271.69
2023-01-19T02:09:56.629Z,99265.72
2023-01-19T02:13:58.435Z,99265.16
2023-01-19T02:18:00.115Z,99267.13
2023-01-19T02:22:09.901Z,99264.69
2023-01-19T02:26:24.068Z,99269.16
2023-01-19T02:30:25.631Z,99269.34
2023-01-19T02:34:27.948Z,99278.69
2023-01-19T02:38:30.786Z,99281.13
2023-01-19T02:42:37.585Z,99274.59
2023-01-19T02:46:39.080Z,99283.72
2023-01-19T02:50:46.076Z,99277.19
2023-01-19T02:55:16.972Z,99287.88
2023-01-19T02:59:41.715Z,99291.63
2023-01-19T03:03:56.533Z,99296.16
2023-01-19T03:08:30.040Z,99298.91
2023-01-19T03:12:53.837Z,99304.97
2023-01-19T03:17:00.647Z,99306.69
2023-01-19T03:21:06.509Z,99312.91
2023-01-19T03:25:09.113Z,99310.94
2023-01-19T03:29:13.792Z,99329.94
2023-01-19T03:33:23.054Z,99321.34
2023-01-19T03:37:27.444Z,99329.44
2023-01-19T03:41:32.318Z,99336.38
2023-01-19T03:45:38.288Z,99333.91
2023-01-19T03:49:43.936Z,99318.53
2023-01-19T03:53:46.627Z,99326.38
2023-01-19T03:57:48.119Z,99331.75
2023-01-19T04:01:49.695Z,99337.72
2023-01-19T04:05:51.696Z,99338.50
2023-01-19T04:09:53.145Z,99345.53
2023-01-19T04:13:54.643Z,99345.81
2023-01-19T04:17:58.515Z,99345.94
2023-01-19T04:22:01.873Z,99339.13
2023-01-19T04:26:08.038Z,99331.44
2023-01-19T04:30:10.507Z,99322.03
2023-01-19T04:34:12.168Z,99326.47
2023-01-19T04:38:13.775Z,99329.16
2023-01-19T04:42:16.745Z,99334.53
2023-01-19T04:46:18.388Z,99332.78
2023-01-19T04:50:20.319Z,99336.34
2023-01-19T04:54:22.630Z,99345.00
2023-01-19T04:58:24.167Z,99339.91
2023-01-19T05:02:26.219Z,99337.28
2023-01-19T05:06:27.825Z,99337.31
2023-01-19T05:10:29.508Z,99337.88
2023-01-19T05:14:31.188Z,99337.06
2023-01-19T05:18:36.193Z,99336.22
2023-01-19T05:22:39.112Z,99335.47
2023-01-19T05:26:40.818Z,99332.91
2023-01-19T05:30:43.019Z,99338.06
2023-01-19T05:34:44.600Z,99331.94
2023-01-19T05:38:46.188Z,99326.94
2023-01-19T05:42:48.004Z,99326.28
2023-01-19T05:46:49.603Z,99316.13
2023-01-19T05:50:51.415Z,99325.59
2023-01-19T05:54:55.169Z,99327.41
2023-01-19T05:58:56.826Z,99331.88
2023-01-19T06:03:00.694Z,99332.81
2023-01-19T06:07:02.821Z,99344.75
2023-01-19T06:11:05.903Z,99342.22
2023-01-19T06:15:08.415Z,99348.97
2023-01-19T06:19:10.236Z,99353.47
2023-01-19T06:23:11.679Z,99362.31
2023-01-19T06:27:13.752Z,99377.78
2023-01-19T06:31:15.513Z,99374.25
2023-01-19T06:35:18.225Z,99383.84
2023-01-19T06:39:19.823Z,99392.53
2023-01-19T06:43:21.920Z,99398.63
2023-01-19T06:47:23.546Z,99394.25
2023-01-19T06:51:25.508Z,99401.09
2023-01-19T06:55:27.962Z,99404.47
2023-01-19T06:59:29.616Z,99408.84
2023-01-19T07:03:31.401Z,99417.41
2023-01-19T07:07:33.264Z,99417.38
2023-01-19T07:11:34.934Z,99411.13
2023-01-19T07:22:02.284Z,99412.63
2023-01-19T07:26:03.968Z,99422.50
2023-01-19T07:30:39.557Z,99422.13
2023-01-19T07:34:41.045Z,99416.72
2023-01-19T07:38:42.534Z,99425.81
2023-01-19T07:43:34.376Z,99423.69
2023-01-19T07:48:27.438Z,99431.63
2023-01-19T07:53:19.765Z,99416.47
2023-01-19T07:58:11.586Z,99420.72
2023-01-19T08:02:38.369Z,99417.16
2023-01-19T08:06:40.979Z,99423.38
2023-01-19T08:11:32.686Z,99425.59
2023-01-19T08:15:34.596Z,99433.13
2023-01-19T08:19:36.049Z,99438.53
2023-01-19T08:23:37.786Z,99445.44
2023-01-19T08:27:39.314Z,99443.97
2023-01-19T08:31:41.917Z,99445.19
2023-01-19T08:35:48.816Z,99444.97
2023-01-19T08:39:50.824Z,99438.91
2023-01-19T08:44:26.966Z,99442.53
2023-01-19T08:48:28.495Z,99454.31
2023-01-19T08:53:06.609Z,99447.03
2023-01-19T08:57:08.441Z,99442.59
2023-01-19T09:01:14.723Z,99446.22
2023-01-19T09:05:18.027Z,99433.00
2023-01-19T09:09:19.969Z,99438.63
2023-01-19T09:13:21.720Z,99433.94
2023-01-19T09:17:23.744Z,99443.03
2023-01-19T09:21:48.937Z,99442.16
2023-01-19T09:26:15.824Z,99436.53
2023-01-19T09:30:19.091Z,99439.22
2023-01-19T09:34:22.601Z,99441.69
2023-01-19T09:38:58.395Z,99439.31
2023-01-19T09:43:14.155Z,99438.84
2023-01-19T09:47:21.850Z,99438.59
2023-01-19T09:51:50.931Z,99435.53
2023-01-19T09:56:27.512Z,99434.84
2023-01-19T10:01:19.773Z,99429.22
2023-01-19T10:05:28.635Z,99438.88
2023-01-19T10:10:10.348Z,99436.75
2023-01-19T10:14:26.042Z,99429.56
2023-01-19T10:18:51.540Z,99426.94
2023-01-19T10:22:56.010Z,99417.88
2023-01-19T10:26:57.481Z,99421.41
2023-01-19T10:31:35.588Z,99423.63
2023-01-19T10:35:37.182Z,99414.19
2023-01-19T10:39:52.781Z,99415.03
2023-01-19T10:44:01.609Z,99415.00
2023-01-19T10:48:07.260Z,99415.47
2023-01-19T10:52:58.856Z,99408.19
2023-01-19T10:57:51.417Z,99409.06
2023-01-19T11:02:43.607Z,99402.13
2023-01-19T11:06:45.567Z,99403.34
2023-01-19T11:11:08.264Z,99411.41
2023-01-19T11:15:24.217Z,99399.88
2023-01-19T11:19:31.283Z,99404.78
2023-01-19T11:23:59.824Z,99398.50
2023-01-19T11:28:40.602Z,99400.16
2023-01-19T11:33:32.739Z,99400.25
2023-01-19T11:37:34.492Z,99404.41
2023-01-19T11:41:38.240Z,99410.41
2023-01-19T11:45:40.227Z,99406.88
2023-01-19T11:49:52.344Z,99409.78
2023-01-19T11:53:53.907Z,99402.97
2023-01-19T11:57:55.441Z,99417.59
2023-01-19T12:02:00.348Z,99407.63
2023-01-19T12:06:08.445Z,99397.53
2023-01-19T12:11:26.488Z,99403.75
2023-01-19T12:15:41.565Z,99389.59
2023-01-19T12:19:54.839Z,99399.59
2023-01-19T12:24:33.804Z,99393.94
2023-01-19T12:28:40.392Z,99394.25
2023-01-19T12:32:43.196Z,99396.16
2023-01-19T12:36:45.419Z,99395.78
2023-01-19T12:40:46.929Z,99391.03
2023-01-19T12:44:48.891Z,99384.88
2023-01-19T12:48:51.345Z,99392.88
2023-01-19T12:52:58.386Z,99381.38
2023-01-19T12:57:06.703Z,99378.09
2023-01-19T13:01:19.256Z,99379.09
2023-01-19T13:05:32.664Z,99372.81
2023-01-19T13:09:38.698Z,99384.00
2023-01-19T13:13:49.414Z,99380.25
2023-01-19T13:17:52.874Z,99373.28
2023-01-19T13:22:44.724Z,99364.38
2023-01-19T13:27:37.592Z,99362.38
2023-01-19T13:31:42.548Z,99368.41
2023-01-19T13:35:57.328Z,99368.72
2023-01-19T13:39:59.989Z,99365.28
2023-01-19T13:44:20.928Z,99366.03
2023-01-19T13:48:24.083Z,99363.59
2023-01-19T13:52:30.177Z,99368.03
2023-01-19T13:56:31.820Z,99357.44
2023-01-19T14:00:33.508Z,99368.66
2023-01-19T14:04:35.429Z,99372.38
2023-01-19T14:08:39.257Z,99387.41
2023-01-19T14:13:02.581Z,99381.38
2023-01-19T14:17:04.941Z,99383.72
2023-01-19T14:21:09.644Z,99387.19
2023-01-19T14:25:31.930Z,99398.56
2023-01-19T14:30:25.824Z,99401.38
2023-01-19T14:35:17.717Z,99396.91
2023-01-19T14:39:25.084Z,99401.28
2023-01-19T14:43:28.481Z,99405.91
2023-01-19T14:47:37.522Z,99405.81
2023-01-19T14:51:55.884Z,99405.03
2023-01-19T14:56:25.101Z,99406.19
2023-01-19T15:00:27.133Z,99417.44
2023-01-19T15:04:28.890Z,99418.22
2023-01-19T15:08:33.468Z,99414.97
2023-01-19T15:12:35.378Z,99418.22
2023-01-19T15:17:16.928Z,99412.44
2023-01-19T15:21:21.581Z,99421.13
2023-01-19T15:25:59.013Z,99436.44
2023-01-19T15:30:00.748Z,99437.94
2023-01-19T15:34:03.665Z,99440.44
2023-01-19T15:43:40.579Z,99453.03
2023-01-19T15:47:41.973Z,99450.97
2023-01-19T15:51:43.685Z,99457.09
2023-01-19T15:55:49.033Z,99462.97
2023-01-19T15:59:51.413Z,99458.78
2023-01-19T16:03:52.830Z,99469.44
2023-01-19T16:07:54.549Z,99470.13
2023-01-19T16:11:57.266Z,99476.75
2023-01-19T16:16:07.962Z,99477.50
2023-01-19T16:20:12.931Z,99478.38
2023-01-19T16:24:15.946Z,99479.78
2023-01-19T16:28:17.470Z,99491.22
2023-01-19T16:32:19.507Z,99485.16
2023-01-19T16:36:26.999Z,99490.38
2023-01-19T16:40:28.632Z,99491.22
2023-01-19T16:44:30.311Z,99498.28
2023-01-19T16:48:34.873Z,99501.00
2023-01-19T16:52:36.429Z,99506.25
2023-01-19T16:56:38.152Z,99510.44
2023-01-19T17:00:39.585Z,99512.44
2023-01-19T17:04:41.233Z,99510.59
2023-01-19T17:08:43.007Z,99514.78
2023-01-19T17:12:44.854Z,99519.66
2023-01-19T17:16:46.806Z,99523.25
2023-01-19T17:20:48.563Z,99523.81
2023-01-19T17:24:50.076Z,99520.94
2023-01-19T17:28:51.911Z,99532.44
2023-01-19T17:32:53.498Z,99529.56
2023-01-19T17:37:02.530Z,99526.94
2023-01-19T17:41:15.374Z,99534.91
2023-01-19T17:45:16.787Z,99527.38
2023-01-19T17:49:18.423Z,99543.91
2023-01-19T17:53:19.901Z,99540.97
2023-01-19T17:57:21.412Z,99546.84
2023-01-19T18:01:29.231Z,99551.25
2023-01-19T18:05:30.851Z,99543.69
2023-01-19T18:09:32.458Z,99545.97
2023-01-19T18:13:34.007Z,99542.41
2023-01-19T18:17:35.860Z,99543.88
2023-01-19T18:21:37.999Z,99550.22
2023-01-19T18:25:40.027Z,99549.31
2023-01-19T18:29:42.304Z,99552.84
2023-01-19T18:33:43.857Z,99557.03
2023-01-19T18:37:45.493Z,99544.66
2023-01-19T18:41:47.101Z,99555.16
2023-01-19T18:45:49.867Z,99549.00
2023-01-19T18:49:51.519Z,99559.34
2023-01-19T18:53:53.057Z,99573.03
2023-01-19T18:57:54.513Z,99577.19
2023-01-19T19:01:56.189Z,99570.53
2023-01-19T19:06:02.381Z,99570.00
2023-01-19T19:10:05.813Z,99563.31
2023-01-19T19:14:07.456Z,99568.09
2023-01-19T19:18:09.799Z,99585.78
2023-01-19T19:22:11.433Z,99587.56
2023-01-19T19:26:12.939Z,99589.31
2023-01-19T19:30:15.387Z,99581.38
2023-01-19T19:34:17.278Z,99592.56
2023-01-19T19:38:18.756Z,99586.63
2023-01-19T19:42:20.307Z,99585.63
2023-01-19T19:46:24.104Z,99589.91
2023-01-19T19:50:25.761Z,99597.19
2023-01-19T19:54:27.293Z,99592.47
2023-01-19T19:58:29.258Z,99605.34
2023-01-19T20:02:31.640Z,99613.22
2023-01-19T20:06:38.513Z,99608.38
2023-01-19T20:10:40.357Z,99612.63
2023-01-19T20:14:41.955Z,99619.13
2023-01-19T20:18:48.401Z,99615.91
2023-01-19T20:22:50.080Z,99618.81
2023-01-19T20:26:53.070Z,99619.56
2023-01-19T20:30:54.930Z,99622.81
2023-01-19T20:34:56.417Z,99625.31
2023-01-19T20:38:58.776Z,99626.97
2023-01-19T20:43:00.248Z,99630.34
2023-01-19T20:47:01.861Z,99623.59
2023-01-19T20:51:06.677Z,99635.59
2023-01-19T20:55:08.816Z,99626.84
2023-01-19T20:59:40.760Z,99635.84
2023-01-19T21:04:17.214Z,99635.09
2023-01-19T21:08:19.032Z,99640.28
2023-01-19T21:12:45.865Z,99651.28
2023-01-19T21:16:47.420Z,99660.09
2023-01-19T21:21:39.423Z,99659.09
2023-01-19T21:31:41.653Z,99669.25
2023-01-19T21:41:38.401Z,99670.44
2023-01-19T21:45:43.300Z,99675.34
2023-01-19T21:49:48.029Z,99680.16
2023-01-19T21:53:51.983Z,99676.56
2023-01-19T21:57:53.636Z,99682.06
2023-01-19T22:01:55.456Z,99690.47
2023-01-19T22:06:02.484Z,99695.38
2023-01-19T22:10:05.274Z,99695.34
2023-01-19T22:14:09.185Z,99691.28
2023-01-19T22:18:10.765Z,99696.91
2023-01-19T22:22:12.416Z,99706.53
2023-01-19T22:26:14.251Z,99707.25
2023-01-19T22:30:16.077Z,99711.03
2023-01-19T22:34:42.597Z,99705.56
2023-01-19T22:38:44.646Z,99708.47
2023-01-19T22:42:47.646Z,99722.09
2023-01-19T22:47:23.166Z,99706.22
2023-01-19T22:52:14.506Z,99704.75
2023-01-19T22:56:42.308Z,99702.28
2023-01-19T23:06:16.045Z,99699.25
2023-01-19T23:10:17.795Z,99709.19
2023-01-19T23:14:53.320Z,99703.94
2023-01-19T23:18:59.802Z,99710.03
2023-01-19T23:23:01.388Z,99707.06
2023-01-19T23:27:03.010Z,99703.91
2023-01-19T23:31:22.652Z,99703.78
2023-01-19T23:35:50.833Z,99705.88
2023-01-19T23:40:02.600Z,99708.69
2023-01-19T23:44:05.257Z,99700.13
2023-01-19T23:48:06.964Z,99697.25
2023-01-19T23:52:08.602Z,99697.00
2023-01-19T23:56:18.149Z,99703.50
